Nyk Constellation — V7NP4 — position and weather

sailwx.info

Track history (hours):
 
Tides and Currents Weather Stations Pressure Air Temp Water Temp Dewpoint Dewpoint Depression Visibility Wind Speed Wind Dir Waves Ship Positions

Nyk Constellation

Last reported at 2015-May-22 14:33 UTC. Time now 2015-May-23 10:23 UTC.
Position N 39°39' W 073°49'.

Length 294 m; draft 12.2 m.

Type: Cargo ship. MMSI: 538002992.

Date/timePositionNaut miles runAvg speedWind from/ knotsBaromVisibWave heightAir tempDewpointWater temp
2015-May-22 14:33N 39°39' W 073°49'1414.0
2015-May-22 13:33N 39°53' W 073°49'1212.3
2015-May-22 12:33N 40°05' W 073°49'1311.5
2015-May-22 11:27N 40°18' W 073°49'1011.0
2015-May-22 10:33N 40°28' W 073°51'1413.6
2015-May-22 09:33N 40°38' W 074°03'5 5.3
2015-May-22 08:33N 40°39' W 074°10'1 0.6
2015-May-22 07:17N 40°39' W 074°11'0 0.0
2015-May-22 06:29N 40°39' W 074°11'0 0.0
2015-May-22 05:29N 40°39' W 074°11'0 0.0
2015-May-22 04:32N 40°39' W 074°11'0 0.0
2015-May-22 03:32N 40°39' W 074°11'0 0.0
2015-May-22 02:32N 40°39' W 074°11'0 0.0
2015-May-22 01:26N 40°39' W 074°11'0 0.0
2015-May-22 00:29N 40°39' W 074°11'0 0.0
2015-May-21 23:32N 40°39' W 074°11'0 0.0
2015-May-21 22:32N 40°39' W 074°11'0 0.0
2015-May-21 21:32N 40°39' W 074°11'2 2.4
2015-May-21 20:33N 40°39' W 074°08'7 7.2
2015-May-21 19:33N 40°33' W 074°02'1211.5
2015-May-21 18:33N 40°27' W 073°49'4914.6
2015-May-21 15:09N 40°30' W 072°44'1217.2
2015-May-21 14:26N 40°30' W 072°28'1517.1
2015-May-21 13:33N 40°31' W 072°08'1313.3
2015-May-21 12:33N 40°31' W 071°50'1515.3
2015-May-21 11:33N 40°32' W 071°30'1919.3
2015-May-21 10:33N 40°32' W 071°05'1919.4
2015-May-21 09:33N 40°33' W 070°39'2419.4
2015-May-21 08:19N 40°33' W 070°07'1519.3
2015-May-21 07:31N 40°34' W 069°47'1919.0
2015-May-21 06:32N 40°35' W 069°23'  
2015-May-13 19:04N 49°60' W 004°23'1120.3
2015-May-13 18:31N 50°03' W 004°07'1919.6
2015-May-13 17:34N 50°08' W 003°38'1514.9
2015-May-13 16:33N 50°20' W 003°25'7 7.4
2015-May-13 15:34N 50°26' W 003°17'1615.7
2015-May-13 14:33N 50°26' W 002°53'1918.7
2015-May-13 13:33N 50°27' W 002°23'1919.0
2015-May-13 12:33N 50°27' W 001°53'2020.1
2015-May-13 11:33N 50°29' W 001°22'2120.9
2015-May-13 10:33N 50°30' W 000°49'2120.9
2015-May-13 09:33N 50°31' W 000°16'2120.2
2015-May-13 08:32N 50°34' E 000°16'1919.5
2015-May-13 07:33N 50°40' E 000°44'1818.4
2015-May-13 06:33N 50°50' E 001°08'1817.7
2015-May-13 05:33N 51°02' E 001°29'1919.0
2015-May-13 04:34N 51°16' E 001°50'2020.3
2015-May-13 03:33N 51°33' E 002°08'2120.5
2015-May-13 02:33N 51°48' E 002°31'2323.2
2015-May-13 01:33N 52°02' E 003°01'1414.6
2015-May-13 00:33N 52°03' E 003°24'1615.9
2015-May-12 23:33N 52°04' E 003°50'9 8.9
2015-May-12 22:33N 51°60' E 004°03'2 2.1
2015-May-12 21:33N 51°58' E 004°03'0 0.0
2015-May-12 20:31N 51°58' E 004°03'0 0.0
2015-May-12 19:31N 51°58' E 004°03'0 0.0
2015-May-12 18:31N 51°58' E 004°03'0 0.0
2015-May-12 17:31N 51°58' E 004°03'0 0.0
2015-May-12 16:31N 51°58' E 004°03'0 0.0
2015-May-12 15:31N 51°58' E 004°03'  
Track history (hours):
 
Tides and Currents Weather Stations Pressure Air Temp Water Temp Dewpoint Dewpoint Depression Visibility Wind Speed Wind Dir Waves Ship Positions

Nyk Constellation

Last reported at 2015-May-22 14:33 UTC. Time now 2015-May-23 10:23 UTC.
Position N 39°39' W 073°49'.

Length 294 m; draft 12.2 m.

Type: Cargo ship. MMSI: 538002992.

Date/timePositionNaut miles runAvg speedWind from/ knotsBaromVisibWave heightAir tempDewpointWater temp
2015-May-22 14:33N 39°39' W 073°49'1414.0
2015-May-22 13:33N 39°53' W 073°49'1212.3
2015-May-22 12:33N 40°05' W 073°49'1311.5
2015-May-22 11:27N 40°18' W 073°49'1011.0
2015-May-22 10:33N 40°28' W 073°51'1413.6
2015-May-22 09:33N 40°38' W 074°03'5 5.3
2015-May-22 08:33N 40°39' W 074°10'1 0.6
2015-May-22 07:17N 40°39' W 074°11'0 0.0
2015-May-22 06:29N 40°39' W 074°11'0 0.0
2015-May-22 05:29N 40°39' W 074°11'0 0.0
2015-May-22 04:32N 40°39' W 074°11'0 0.0
2015-May-22 03:32N 40°39' W 074°11'0 0.0
2015-May-22 02:32N 40°39' W 074°11'0 0.0
2015-May-22 01:26N 40°39' W 074°11'0 0.0
2015-May-22 00:29N 40°39' W 074°11'0 0.0
2015-May-21 23:32N 40°39' W 074°11'0 0.0
2015-May-21 22:32N 40°39' W 074°11'0 0.0
2015-May-21 21:32N 40°39' W 074°11'2 2.4
2015-May-21 20:33N 40°39' W 074°08'7 7.2
2015-May-21 19:33N 40°33' W 074°02'1211.5
2015-May-21 18:33N 40°27' W 073°49'4914.6
2015-May-21 15:09N 40°30' W 072°44'1217.2
2015-May-21 14:26N 40°30' W 072°28'1517.1
2015-May-21 13:33N 40°31' W 072°08'1313.3
2015-May-21 12:33N 40°31' W 071°50'1515.3
2015-May-21 11:33N 40°32' W 071°30'1919.3
2015-May-21 10:33N 40°32' W 071°05'1919.4
2015-May-21 09:33N 40°33' W 070°39'2419.4
2015-May-21 08:19N 40°33' W 070°07'1519.3
2015-May-21 07:31N 40°34' W 069°47'1919.0
2015-May-21 06:32N 40°35' W 069°23'  
2015-May-13 19:04N 49°60' W 004°23'1120.3
2015-May-13 18:31N 50°03' W 004°07'1919.6
2015-May-13 17:34N 50°08' W 003°38'1514.9
2015-May-13 16:33N 50°20' W 003°25'7 7.4
2015-May-13 15:34N 50°26' W 003°17'1615.7
2015-May-13 14:33N 50°26' W 002°53'1918.7
2015-May-13 13:33N 50°27' W 002°23'1919.0
2015-May-13 12:33N 50°27' W 001°53'2020.1
2015-May-13 11:33N 50°29' W 001°22'2120.9
2015-May-13 10:33N 50°30' W 000°49'2120.9
2015-May-13 09:33N 50°31' W 000°16'2120.2
2015-May-13 08:32N 50°34' E 000°16'1919.5
2015-May-13 07:33N 50°40' E 000°44'1818.4
2015-May-13 06:33N 50°50' E 001°08'1817.7
2015-May-13 05:33N 51°02' E 001°29'1919.0
2015-May-13 04:34N 51°16' E 001°50'2020.3
2015-May-13 03:33N 51°33' E 002°08'2120.5
2015-May-13 02:33N 51°48' E 002°31'2323.2
2015-May-13 01:33N 52°02' E 003°01'1414.6
2015-May-13 00:33N 52°03' E 003°24'1615.9
2015-May-12 23:33N 52°04' E 003°50'9 8.9
2015-May-12 22:33N 51°60' E 004°03'2 2.1
2015-May-12 21:33N 51°58' E 004°03'0 0.0
2015-May-12 20:31N 51°58' E 004°03'0 0.0
2015-May-12 19:31N 51°58' E 004°03'0 0.0
2015-May-12 18:31N 51°58' E 004°03'0 0.0
2015-May-12 17:31N 51°58' E 004°03'0 0.0
2015-May-12 16:31N 51°58' E 004°03'0 0.0
2015-May-12 15:31N 51°58' E 004°03'  

Dump ship's entire track history